Isabela, Philippines
Current Conditions -  °F | °C
As of 2:00 AM on Monday 24 Nov 2014 (Local Time) from RPMZ Reporting Station
Broken Clouds Broken Clouds  
Wind Chill: 77°   Ceiling: 30000
Heat Index: 79°   Visibility: 6mi
Dew Point: 68°   Wind: 0mph
Humidity: 74%   Direction: NA
Pressure: 29.83"   Gusts: NA
Location:  6.7°N, 121.97°E
Report Text: RPMZ 231800Z 00000KT 9999 FEW018CB SCT100 BKN300 25/20 Q1010 RMK A2983 CB N/ NE
Loading
Personal Weather Stations






























Interactive Weather Map New forecast layout! Learn more

10-Day Weather Forecast

Advertisements
Track Severe Weather on mobile